sensor_id;sensor_type;location;lat;lon;timestamp;temperature;humidity
16301;DHT22;8258;51.020;4.248;2023-08-07T00:01:16;11.90;99.90
16301;DHT22;8258;51.020;4.248;2023-08-07T00:03:45;11.80;99.90
16301;DHT22;8258;51.020;4.248;2023-08-07T00:06:13;11.80;99.90
16301;DHT22;8258;51.020;4.248;2023-08-07T00:08:40;11.80;99.90
16301;DHT22;8258;51.020;4.248;2023-08-07T00:11:07;11.80;99.90
16301;DHT22;8258;51.020;4.248;2023-08-07T00:13:34;11.70;99.90
16301;DHT22;8258;51.020;4.248;2023-08-07T00:16:01;11.70;99.90
16301;DHT22;8258;51.020;4.248;2023-08-07T00:18:28;11.70;99.90
16301;DHT22;8258;51.020;4.248;2023-08-07T00:20:57;11.70;99.90
16301;DHT22;8258;51.020;4.248;2023-08-07T00:23:24;11.70;99.90
16301;DHT22;8258;51.020;4.248;2023-08-07T00:25:51;11.60;99.90
16301;DHT22;8258;51.020;4.248;2023-08-07T00:28:18;11.60;99.90
16301;DHT22;8258;51.020;4.248;2023-08-07T00:30:45;11.50;99.90
16301;DHT22;8258;51.020;4.248;2023-08-07T00:33:13;11.50;99.90
16301;DHT22;8258;51.020;4.248;2023-08-07T00:35:40;11.50;99.90
16301;DHT22;8258;51.020;4.248;2023-08-07T00:38:08;11.50;99.90
16301;DHT22;8258;51.020;4.248;2023-08-07T00:40:38;11.50;99.90
16301;DHT22;8258;51.020;4.248;2023-08-07T00:43:05;11.50;99.90
16301;DHT22;8258;51.020;4.248;2023-08-07T00:45:35;11.50;99.90
16301;DHT22;8258;51.020;4.248;2023-08-07T00:48:03;11.40;99.90
16301;DHT22;8258;51.020;4.248;2023-08-07T00:50:31;11.40;99.90
16301;DHT22;8258;51.020;4.248;2023-08-07T00:52:58;11.40;99.90
16301;DHT22;8258;51.020;4.248;2023-08-07T00:55:27;11.40;99.90
16301;DHT22;8258;51.020;4.248;2023-08-07T00:57:55;11.40;99.90
16301;DHT22;8258;51.020;4.248;2023-08-07T01:00:22;11.40;99.90
16301;DHT22;8258;51.020;4.248;2023-08-07T01:02:50;11.40;99.90
16301;DHT22;8258;51.020;4.248;2023-08-07T01:05:18;11.40;99.90
16301;DHT22;8258;51.020;4.248;2023-08-07T01:07:47;11.40;99.90
16301;DHT22;8258;51.020;4.248;2023-08-07T01:10:17;11.30;99.90
16301;DHT22;8258;51.020;4.248;2023-08-07T01:12:54;11.30;99.90
16301;DHT22;8258;51.020;4.248;2023-08-07T01:15:30;11.30;99.90
16301;DHT22;8258;51.020;4.248;2023-08-07T01:17:57;11.20;99.90
16301;DHT22;8258;51.020;4.248;2023-08-07T01:20:25;11.20;99.90
16301;DHT22;8258;51.020;4.248;2023-08-07T01:22:53;11.20;99.90
16301;DHT22;8258;51.020;4.248;2023-08-07T01:25:20;11.10;99.90
16301;DHT22;8258;51.020;4.248;2023-08-07T01:27:55;11.10;99.90
16301;DHT22;8258;51.020;4.248;2023-08-07T01:30:30;11.00;99.90
16301;DHT22;8258;51.020;4.248;2023-08-07T01:33:08;11.10;99.90
16301;DHT22;8258;51.020;4.248;2023-08-07T01:35:40;11.10;99.90
16301;DHT22;8258;51.020;4.248;2023-08-07T01:38:10;11.00;99.90
16301;DHT22;8258;51.020;4.248;2023-08-07T01:40:38;10.90;99.90
16301;DHT22;8258;51.020;4.248;2023-08-07T01:43:06;10.90;99.90
16301;DHT22;8258;51.020;4.248;2023-08-07T01:45:33;10.80;99.90
16301;DHT22;8258;51.020;4.248;2023-08-07T01:48:00;10.70;99.90
16301;DHT22;8258;51.020;4.248;2023-08-07T01:50:27;10.80;99.90
16301;DHT22;8258;51.020;4.248;2023-08-07T01:52:55;10.80;99.90
16301;DHT22;8258;51.020;4.248;2023-08-07T01:55:23;10.80;99.90
16301;DHT22;8258;51.020;4.248;2023-08-07T01:57:50;10.80;99.90
16301;DHT22;8258;51.020;4.248;2023-08-07T02:00:18;10.80;99.90
16301;DHT22;8258;51.020;4.248;2023-08-07T02:02:45;10.80;99.90
16301;DHT22;8258;51.020;4.248;2023-08-07T02:05:12;10.80;99.90
16301;DHT22;8258;51.020;4.248;2023-08-07T02:07:40;10.70;99.90
16301;DHT22;8258;51.020;4.248;2023-08-07T02:10:07;10.70;99.90
16301;DHT22;8258;51.020;4.248;2023-08-07T02:12:36;10.70;99.90
16301;DHT22;8258;51.020;4.248;2023-08-07T02:15:03;10.60;99.90
16301;DHT22;8258;51.020;4.248;2023-08-07T02:17:30;10.60;99.90
16301;DHT22;8258;51.020;4.248;2023-08-07T02:19:58;10.60;99.90
16301;DHT22;8258;51.020;4.248;2023-08-07T02:22:25;10.60;99.90
16301;DHT22;8258;51.020;4.248;2023-08-07T02:24:52;10.60;99.90
16301;DHT22;8258;51.020;4.248;2023-08-07T02:27:19;10.70;99.90
16301;DHT22;8258;51.020;4.248;2023-08-07T02:29:47;10.80;99.90
16301;DHT22;8258;51.020;4.248;2023-08-07T02:32:16;10.80;99.90
16301;DHT22;8258;51.020;4.248;2023-08-07T02:34:44;10.80;99.90
16301;DHT22;8258;51.020;4.248;2023-08-07T02:37:11;10.70;99.90
16301;DHT22;8258;51.020;4.248;2023-08-07T02:39:38;10.70;99.90
16301;DHT22;8258;51.020;4.248;2023-08-07T02:42:06;10.70;99.90
16301;DHT22;8258;51.020;4.248;2023-08-07T02:44:33;10.70;99.90
16301;DHT22;8258;51.020;4.248;2023-08-07T02:47:01;10.70;99.90
16301;DHT22;8258;51.020;4.248;2023-08-07T02:49:28;10.60;99.90
16301;DHT22;8258;51.020;4.248;2023-08-07T02:51:55;10.60;99.90
16301;DHT22;8258;51.020;4.248;2023-08-07T02:54:22;10.60;99.90
16301;DHT22;8258;51.020;4.248;2023-08-07T02:56:49;10.60;99.90
16301;DHT22;8258;51.020;4.248;2023-08-07T02:59:16;10.70;99.90
16301;DHT22;8258;51.020;4.248;2023-08-07T03:01:43;10.70;99.90
16301;DHT22;8258;51.020;4.248;2023-08-07T03:04:12;10.70;99.90
16301;DHT22;8258;51.020;4.248;2023-08-07T03:06:39;10.70;99.90
16301;DHT22;8258;51.020;4.248;2023-08-07T03:09:06;10.70;99.90
16301;DHT22;8258;51.020;4.248;2023-08-07T03:11:33;10.70;99.90
16301;DHT22;8258;51.020;4.248;2023-08-07T03:14:00;10.60;99.90
16301;DHT22;8258;51.020;4.248;2023-08-07T03:16:27;10.60;99.90
16301;DHT22;8258;51.020;4.248;2023-08-07T03:18:54;10.60;99.90
16301;DHT22;8258;51.020;4.248;2023-08-07T03:21:22;10.70;99.90
16301;DHT22;8258;51.020;4.248;2023-08-07T03:23:50;10.80;99.90
16301;DHT22;8258;51.020;4.248;2023-08-07T03:26:17;10.80;99.90
16301;DHT22;8258;51.020;4.248;2023-08-07T03:28:44;10.90;99.90
16301;DHT22;8258;51.020;4.248;2023-08-07T03:31:12;11.00;99.90
16301;DHT22;8258;51.020;4.248;2023-08-07T03:33:39;11.20;99.90
16301;DHT22;8258;51.020;4.248;2023-08-07T03:36:06;11.30;99.90
16301;DHT22;8258;51.020;4.248;2023-08-07T03:38:34;11.30;99.90
16301;DHT22;8258;51.020;4.248;2023-08-07T03:41:01;11.40;99.90
16301;DHT22;8258;51.020;4.248;2023-08-07T03:43:28;11.30;99.90
16301;DHT22;8258;51.020;4.248;2023-08-07T03:45:56;11.30;99.90
16301;DHT22;8258;51.020;4.248;2023-08-07T03:48:23;11.30;99.90
16301;DHT22;8258;51.020;4.248;2023-08-07T03:50:50;11.20;99.90
16301;DHT22;8258;51.020;4.248;2023-08-07T03:53:17;11.20;99.90
16301;DHT22;8258;51.020;4.248;2023-08-07T03:55:49;11.10;99.90
16301;DHT22;8258;51.020;4.248;2023-08-07T03:58:16;11.10;99.90
16301;DHT22;8258;51.020;4.248;2023-08-07T04:00:43;11.10;99.90
16301;DHT22;8258;51.020;4.248;2023-08-07T04:03:10;11.10;99.90
16301;DHT22;8258;51.020;4.248;2023-08-07T04:05:37;11.00;99.90
16301;DHT22;8258;51.020;4.248;2023-08-07T04:08:04;11.00;99.90
16301;DHT22;8258;51.020;4.248;2023-08-07T04:10:31;11.00;99.90
16301;DHT22;8258;51.020;4.248;2023-08-07T04:13:00;11.00;99.90
16301;DHT22;8258;51.020;4.248;2023-08-07T04:15:26;11.00;99.90
16301;DHT22;8258;51.020;4.248;2023-08-07T04:17:53;10.90;99.90
16301;DHT22;8258;51.020;4.248;2023-08-07T04:20:20;10.90;99.90
16301;DHT22;8258;51.020;4.248;2023-08-07T04:22:48;11.00;99.90
16301;DHT22;8258;51.020;4.248;2023-08-07T04:25:15;11.00;99.90
16301;DHT22;8258;51.020;4.248;2023-08-07T04:27:42;11.10;99.90
16301;DHT22;8258;51.020;4.248;2023-08-07T04:30:11;11.10;99.90
16301;DHT22;8258;51.020;4.248;2023-08-07T04:32:38;11.00;99.90
16301;DHT22;8258;51.020;4.248;2023-08-07T04:35:07;11.00;99.90
16301;DHT22;8258;51.020;4.248;2023-08-07T04:37:34;11.00;99.90
16301;DHT22;8258;51.020;4.248;2023-08-07T04:40:02;10.90;99.90
16301;DHT22;8258;51.020;4.248;2023-08-07T04:42:30;10.90;99.90
16301;DHT22;8258;51.020;4.248;2023-08-07T04:44:58;10.90;99.90
16301;DHT22;8258;51.020;4.248;2023-08-07T04:47:28;10.90;99.90
16301;DHT22;8258;51.020;4.248;2023-08-07T04:49:55;10.90;99.90
16301;DHT22;8258;51.020;4.248;2023-08-07T04:52:22;10.90;99.90
16301;DHT22;8258;51.020;4.248;2023-08-07T04:54:49;10.90;99.90
16301;DHT22;8258;51.020;4.248;2023-08-07T04:57:16;11.00;99.90
16301;DHT22;8258;51.020;4.248;2023-08-07T04:59:43;11.00;99.90
16301;DHT22;8258;51.020;4.248;2023-08-07T05:02:10;11.00;99.90
16301;DHT22;8258;51.020;4.248;2023-08-07T05:04:38;11.10;99.90
16301;DHT22;8258;51.020;4.248;2023-08-07T05:07:05;11.10;99.90
16301;DHT22;8258;51.020;4.248;2023-08-07T05:09:32;11.20;99.90
16301;DHT22;8258;51.020;4.248;2023-08-07T05:11:59;11.30;99.90
16301;DHT22;8258;51.020;4.248;2023-08-07T05:14:26;11.30;99.90
16301;DHT22;8258;51.020;4.248;2023-08-07T05:16:53;11.30;99.90
16301;DHT22;8258;51.020;4.248;2023-08-07T05:19:20;11.40;99.90
16301;DHT22;8258;51.020;4.248;2023-08-07T05:21:48;11.40;99.90
16301;DHT22;8258;51.020;4.248;2023-08-07T05:24:16;11.50;99.90
16301;DHT22;8258;51.020;4.248;2023-08-07T05:26:43;11.60;99.90
16301;DHT22;8258;51.020;4.248;2023-08-07T05:29:11;11.60;99.90
16301;DHT22;8258;51.020;4.248;2023-08-07T05:31:38;11.70;99.90
16301;DHT22;8258;51.020;4.248;2023-08-07T05:34:05;11.80;99.90
16301;DHT22;8258;51.020;4.248;2023-08-07T05:36:32;11.90;99.90
16301;DHT22;8258;51.020;4.248;2023-08-07T05:39:00;11.90;99.90
16301;DHT22;8258;51.020;4.248;2023-08-07T05:41:27;12.00;99.90
16301;DHT22;8258;51.020;4.248;2023-08-07T05:43:54;12.10;99.90
16301;DHT22;8258;51.020;4.248;2023-08-07T05:46:21;12.20;99.90
16301;DHT22;8258;51.020;4.248;2023-08-07T05:48:48;12.30;99.90
16301;DHT22;8258;51.020;4.248;2023-08-07T05:51:15;12.40;99.90
16301;DHT22;8258;51.020;4.248;2023-08-07T05:53:42;12.50;99.90
16301;DHT22;8258;51.020;4.248;2023-08-07T05:56:10;12.60;99.90
16301;DHT22;8258;51.020;4.248;2023-08-07T05:58:37;12.70;99.90
16301;DHT22;8258;51.020;4.248;2023-08-07T06:01:04;12.80;99.90
16301;DHT22;8258;51.020;4.248;2023-08-07T06:03:31;12.80;99.90
16301;DHT22;8258;51.020;4.248;2023-08-07T06:05:59;13.00;99.90
16301;DHT22;8258;51.020;4.248;2023-08-07T06:08:26;13.00;99.90
16301;DHT22;8258;51.020;4.248;2023-08-07T06:10:54;13.10;99.90
16301;DHT22;8258;51.020;4.248;2023-08-07T06:13:23;13.30;99.90
16301;DHT22;8258;51.020;4.248;2023-08-07T06:15:50;13.30;99.90
16301;DHT22;8258;51.020;4.248;2023-08-07T06:18:17;13.40;99.90
16301;DHT22;8258;51.020;4.248;2023-08-07T06:20:44;13.50;99.90
16301;DHT22;8258;51.020;4.248;2023-08-07T06:23:10;13.60;99.90
16301;DHT22;8258;51.020;4.248;2023-08-07T06:25:37;13.70;99.90
16301;DHT22;8258;51.020;4.248;2023-08-07T06:28:04;13.80;99.90
16301;DHT22;8258;51.020;4.248;2023-08-07T06:30:33;13.90;99.90
16301;DHT22;8258;51.020;4.248;2023-08-07T06:33:00;14.00;99.90
16301;DHT22;8258;51.020;4.248;2023-08-07T06:35:27;14.10;99.90
16301;DHT22;8258;51.020;4.248;2023-08-07T06:37:53;14.20;99.90
16301;DHT22;8258;51.020;4.248;2023-08-07T06:40:21;14.30;99.90
16301;DHT22;8258;51.020;4.248;2023-08-07T06:42:48;14.50;99.90
16301;DHT22;8258;51.020;4.248;2023-08-07T06:45:15;14.60;99.90
16301;DHT22;8258;51.020;4.248;2023-08-07T06:47:43;14.70;99.90
16301;DHT22;8258;51.020;4.248;2023-08-07T06:50:10;14.80;99.90
16301;DHT22;8258;51.020;4.248;2023-08-07T06:52:38;15.00;99.90
16301;DHT22;8258;51.020;4.248;2023-08-07T06:55:06;15.20;99.90
16301;DHT22;8258;51.020;4.248;2023-08-07T06:57:34;15.30;99.90
16301;DHT22;8258;51.020;4.248;2023-08-07T07:00:01;15.60;99.90
16301;DHT22;8258;51.020;4.248;2023-08-07T07:02:29;16.30;99.90
16301;DHT22;8258;51.020;4.248;2023-08-07T07:04:57;16.90;99.90
16301;DHT22;8258;51.020;4.248;2023-08-07T07:07:24;17.30;99.90
16301;DHT22;8258;51.020;4.248;2023-08-07T07:09:51;18.00;99.90
16301;DHT22;8258;51.020;4.248;2023-08-07T07:12:18;18.60;99.90
16301;DHT22;8258;51.020;4.248;2023-08-07T07:14:45;19.20;99.90
16301;DHT22;8258;51.020;4.248;2023-08-07T07:17:12;19.70;99.90
16301;DHT22;8258;51.020;4.248;2023-08-07T07:19:39;20.10;99.90
16301;DHT22;8258;51.020;4.248;2023-08-07T07:22:07;20.50;99.90
16301;DHT22;8258;51.020;4.248;2023-08-07T07:24:34;20.70;99.90
16301;DHT22;8258;51.020;4.248;2023-08-07T07:27:01;20.90;99.90
16301;DHT22;8258;51.020;4.248;2023-08-07T07:29:28;20.50;99.90
16301;DHT22;8258;51.020;4.248;2023-08-07T07:31:55;20.70;99.90
16301;DHT22;8258;51.020;4.248;2023-08-07T07:34:22;21.00;99.90
16301;DHT22;8258;51.020;4.248;2023-08-07T07:36:49;21.20;99.90
16301;DHT22;8258;51.020;4.248;2023-08-07T07:39:18;21.30;99.90
16301;DHT22;8258;51.020;4.248;2023-08-07T07:41:44;21.60;99.90
16301;DHT22;8258;51.020;4.248;2023-08-07T07:44:12;21.80;99.90
16301;DHT22;8258;51.020;4.248;2023-08-07T07:46:39;22.00;99.90
16301;DHT22;8258;51.020;4.248;2023-08-07T07:49:06;21.70;99.90
16301;DHT22;8258;51.020;4.248;2023-08-07T07:51:33;22.20;99.90
16301;DHT22;8258;51.020;4.248;2023-08-07T07:54:00;21.80;99.90
16301;DHT22;8258;51.020;4.248;2023-08-07T07:56:29;21.70;99.90
16301;DHT22;8258;51.020;4.248;2023-08-07T07:58:56;21.90;99.90
16301;DHT22;8258;51.020;4.248;2023-08-07T08:01:23;21.90;99.90
16301;DHT22;8258;51.020;4.248;2023-08-07T08:03:50;22.70;99.90
16301;DHT22;8258;51.020;4.248;2023-08-07T08:06:17;22.90;99.90
16301;DHT22;8258;51.020;4.248;2023-08-07T08:08:44;23.20;99.90
16301;DHT22;8258;51.020;4.248;2023-08-07T08:11:12;23.00;99.90
16301;DHT22;8258;51.020;4.248;2023-08-07T08:13:40;22.70;99.90
16301;DHT22;8258;51.020;4.248;2023-08-07T08:16:07;22.40;99.90
16301;DHT22;8258;51.020;4.248;2023-08-07T08:18:34;21.60;99.90
16301;DHT22;8258;51.020;4.248;2023-08-07T08:21:01;20.90;99.90
16301;DHT22;8258;51.020;4.248;2023-08-07T08:23:30;20.50;99.90
16301;DHT22;8258;51.020;4.248;2023-08-07T08:25:57;20.80;99.90
16301;DHT22;8258;51.020;4.248;2023-08-07T08:28:24;21.60;99.90
16301;DHT22;8258;51.020;4.248;2023-08-07T08:30:53;22.80;99.90
16301;DHT22;8258;51.020;4.248;2023-08-07T08:33:19;22.30;99.90
16301;DHT22;8258;51.020;4.248;2023-08-07T08:35:46;20.90;99.90
16301;DHT22;8258;51.020;4.248;2023-08-07T08:38:13;20.60;99.90
16301;DHT22;8258;51.020;4.248;2023-08-07T08:40:42;20.60;99.90
16301;DHT22;8258;51.020;4.248;2023-08-07T08:43:12;21.90;99.90
16301;DHT22;8258;51.020;4.248;2023-08-07T08:45:40;23.20;99.90
16301;DHT22;8258;51.020;4.248;2023-08-07T08:48:12;23.60;99.90
16301;DHT22;8258;51.020;4.248;2023-08-07T08:50:43;23.30;99.90
16301;DHT22;8258;51.020;4.248;2023-08-07T08:53:11;23.70;99.10
16301;DHT22;8258;51.020;4.248;2023-08-07T08:55:39;22.80;99.90
16301;DHT22;8258;51.020;4.248;2023-08-07T08:58:08;22.40;99.90
16301;DHT22;8258;51.020;4.248;2023-08-07T09:00:36;22.10;99.90
16301;DHT22;8258;51.020;4.248;2023-08-07T09:03:03;21.70;99.90
16301;DHT22;8258;51.020;4.248;2023-08-07T09:05:31;21.10;99.90
16301;DHT22;8258;51.020;4.248;2023-08-07T09:07:59;21.00;99.90
16301;DHT22;8258;51.020;4.248;2023-08-07T09:10:27;21.90;99.90
16301;DHT22;8258;51.020;4.248;2023-08-07T09:13:00;23.00;99.90
16301;DHT22;8258;51.020;4.248;2023-08-07T09:15:30;23.30;99.90
16301;DHT22;8258;51.020;4.248;2023-08-07T09:17:58;23.50;99.90
16301;DHT22;8258;51.020;4.248;2023-08-07T09:20:25;24.40;98.10
16301;DHT22;8258;51.020;4.248;2023-08-07T09:22:55;24.30;96.10
16301;DHT22;8258;51.020;4.248;2023-08-07T09:25:28;23.10;98.60
16301;DHT22;8258;51.020;4.248;2023-08-07T09:27:56;22.20;99.90
16301;DHT22;8258;51.020;4.248;2023-08-07T09:30:26;20.80;99.90
16301;DHT22;8258;51.020;4.248;2023-08-07T09:32:54;20.10;99.90
16301;DHT22;8258;51.020;4.248;2023-08-07T09:35:21;21.20;99.90
16301;DHT22;8258;51.020;4.248;2023-08-07T09:37:48;22.30;99.90
16301;DHT22;8258;51.020;4.248;2023-08-07T09:40:17;24.00;99.90
16301;DHT22;8258;51.020;4.248;2023-08-07T09:42:44;25.00;97.20
16301;DHT22;8258;51.020;4.248;2023-08-07T09:45:21;24.30;95.90
16301;DHT22;8258;51.020;4.248;2023-08-07T09:47:59;24.30;97.10
16301;DHT22;8258;51.020;4.248;2023-08-07T09:50:27;24.80;94.60
16301;DHT22;8258;51.020;4.248;2023-08-07T09:52:54;25.00;93.40
16301;DHT22;8258;51.020;4.248;2023-08-07T09:55:27;25.30;93.30
16301;DHT22;8258;51.020;4.248;2023-08-07T09:57:54;25.50;94.40
16301;DHT22;8258;51.020;4.248;2023-08-07T10:00:22;25.30;90.10
16301;DHT22;8258;51.020;4.248;2023-08-07T10:02:50;25.00;91.50
16301;DHT22;8258;51.020;4.248;2023-08-07T10:05:17;24.70;92.10
16301;DHT22;8258;51.020;4.248;2023-08-07T10:07:45;25.30;92.30
16301;DHT22;8258;51.020;4.248;2023-08-07T10:10:12;25.30;90.90
16301;DHT22;8258;51.020;4.248;2023-08-07T10:12:41;25.30;90.30
16301;DHT22;8258;51.020;4.248;2023-08-07T10:15:11;25.40;90.50
16301;DHT22;8258;51.020;4.248;2023-08-07T10:17:39;25.20;92.00
16301;DHT22;8258;51.020;4.248;2023-08-07T10:20:07;26.10;91.10
16301;DHT22;8258;51.020;4.248;2023-08-07T10:22:35;25.90;88.50
16301;DHT22;8258;51.020;4.248;2023-08-07T10:25:06;26.20;84.40
16301;DHT22;8258;51.020;4.248;2023-08-07T10:27:35;26.30;82.00
16301;DHT22;8258;51.020;4.248;2023-08-07T10:30:07;25.80;87.40
16301;DHT22;8258;51.020;4.248;2023-08-07T10:32:37;24.50;87.10
16301;DHT22;8258;51.020;4.248;2023-08-07T10:35:05;22.70;93.60
16301;DHT22;8258;51.020;4.248;2023-08-07T10:37:38;21.50;98.20
16301;DHT22;8258;51.020;4.248;2023-08-07T10:40:06;22.40;99.90
16301;DHT22;8258;51.020;4.248;2023-08-07T10:42:56;23.50;97.10
16301;DHT22;8258;51.020;4.248;2023-08-07T10:45:26;24.60;91.90
16301;DHT22;8258;51.020;4.248;2023-08-07T10:47:57;25.70;85.70
16301;DHT22;8258;51.020;4.248;2023-08-07T10:50:28;25.80;87.20
16301;DHT22;8258;51.020;4.248;2023-08-07T10:52:56;25.00;83.30
16301;DHT22;8258;51.020;4.248;2023-08-07T10:55:23;24.40;90.60
16301;DHT22;8258;51.020;4.248;2023-08-07T10:57:50;24.70;89.10
16301;DHT22;8258;51.020;4.248;2023-08-07T11:00:26;25.70;89.80
16301;DHT22;8258;51.020;4.248;2023-08-07T11:02:58;27.10;84.90
16301;DHT22;8258;51.020;4.248;2023-08-07T11:05:27;27.40;74.70
16301;DHT22;8258;51.020;4.248;2023-08-07T11:07:54;27.30;75.30
16301;DHT22;8258;51.020;4.248;2023-08-07T11:10:24;27.70;72.10
16301;DHT22;8258;51.020;4.248;2023-08-07T11:12:51;26.70;74.00
16301;DHT22;8258;51.020;4.248;2023-08-07T11:15:18;25.90;77.90
16301;DHT22;8258;51.020;4.248;2023-08-07T11:17:46;25.30;81.40
16301;DHT22;8258;51.020;4.248;2023-08-07T11:20:14;24.70;85.20
16301;DHT22;8258;51.020;4.248;2023-08-07T11:22:41;25.00;85.10
16301;DHT22;8258;51.020;4.248;2023-08-07T11:25:09;26.30;77.40
16301;DHT22;8258;51.020;4.248;2023-08-07T11:27:39;26.70;78.30
16301;DHT22;8258;51.020;4.248;2023-08-07T11:30:11;26.10;77.70
16301;DHT22;8258;51.020;4.248;2023-08-07T11:32:38;26.10;81.00
16301;DHT22;8258;51.020;4.248;2023-08-07T11:35:08;25.60;81.00
16301;DHT22;8258;51.020;4.248;2023-08-07T11:37:35;25.20;84.50
16301;DHT22;8258;51.020;4.248;2023-08-07T11:40:03;24.90;84.90
16301;DHT22;8258;51.020;4.248;2023-08-07T11:42:30;24.70;85.40
16301;DHT22;8258;51.020;4.248;2023-08-07T11:44:57;24.90;85.40
16301;DHT22;8258;51.020;4.248;2023-08-07T11:47:24;25.70;88.10
16301;DHT22;8258;51.020;4.248;2023-08-07T11:49:52;26.10;83.60
16301;DHT22;8258;51.020;4.248;2023-08-07T11:52:21;25.40;86.70
16301;DHT22;8258;51.020;4.248;2023-08-07T11:54:49;24.60;88.20
16301;DHT22;8258;51.020;4.248;2023-08-07T11:57:17;23.50;91.40
16301;DHT22;8258;51.020;4.248;2023-08-07T11:59:48;24.50;91.30
16301;DHT22;8258;51.020;4.248;2023-08-07T12:02:16;25.80;86.40
16301;DHT22;8258;51.020;4.248;2023-08-07T12:04:43;27.60;82.40
16301;DHT22;8258;51.020;4.248;2023-08-07T12:07:10;28.10;81.10
16301;DHT22;8258;51.020;4.248;2023-08-07T12:09:41;28.70;72.00
16301;DHT22;8258;51.020;4.248;2023-08-07T12:12:10;28.30;71.60
16301;DHT22;8258;51.020;4.248;2023-08-07T12:14:38;28.90;69.70
16301;DHT22;8258;51.020;4.248;2023-08-07T12:17:09;27.80;74.30
16301;DHT22;8258;51.020;4.248;2023-08-07T12:19:37;28.40;71.20
16301;DHT22;8258;51.020;4.248;2023-08-07T12:22:07;29.00;66.60
16301;DHT22;8258;51.020;4.248;2023-08-07T12:24:35;29.70;63.00
16301;DHT22;8258;51.020;4.248;2023-08-07T12:27:05;29.60;62.90
16301;DHT22;8258;51.020;4.248;2023-08-07T12:29:32;28.40;62.80
16301;DHT22;8258;51.020;4.248;2023-08-07T12:31:59;26.70;65.70
16301;DHT22;8258;51.020;4.248;2023-08-07T12:34:28;25.00;75.70
16301;DHT22;8258;51.020;4.248;2023-08-07T12:36:55;25.00;80.60
16301;DHT22;8258;51.020;4.248;2023-08-07T12:39:22;25.90;77.10
16301;DHT22;8258;51.020;4.248;2023-08-07T12:41:49;26.90;74.70
16301;DHT22;8258;51.020;4.248;2023-08-07T12:44:17;26.30;75.10
16301;DHT22;8258;51.020;4.248;2023-08-07T12:46:44;27.00;73.40
16301;DHT22;8258;51.020;4.248;2023-08-07T12:49:11;27.40;69.50
16301;DHT22;8258;51.020;4.248;2023-08-07T12:51:39;26.70;70.50
16301;DHT22;8258;51.020;4.248;2023-08-07T12:54:06;26.60;80.80
16301;DHT22;8258;51.020;4.248;2023-08-07T12:56:33;28.00;70.50
16301;DHT22;8258;51.020;4.248;2023-08-07T12:59:00;28.60;67.20
16301;DHT22;8258;51.020;4.248;2023-08-07T13:01:28;27.40;67.80
16301;DHT22;8258;51.020;4.248;2023-08-07T13:03:55;27.00;69.40
16301;DHT22;8258;51.020;4.248;2023-08-07T13:06:22;27.30;69.00
16301;DHT22;8258;51.020;4.248;2023-08-07T13:08:49;28.30;64.50
16301;DHT22;8258;51.020;4.248;2023-08-07T13:11:16;29.50;64.40
16301;DHT22;8258;51.020;4.248;2023-08-07T13:13:43;28.40;58.50
16301;DHT22;8258;51.020;4.248;2023-08-07T13:16:10;27.30;62.50
16301;DHT22;8258;51.020;4.248;2023-08-07T13:18:38;27.10;65.60
16301;DHT22;8258;51.020;4.248;2023-08-07T13:21:05;27.00;64.10
16301;DHT22;8258;51.020;4.248;2023-08-07T13:23:32;28.50;64.90
16301;DHT22;8258;51.020;4.248;2023-08-07T13:25:59;29.60;57.30
16301;DHT22;8258;51.020;4.248;2023-08-07T13:28:26;28.30;61.40
16301;DHT22;8258;51.020;4.248;2023-08-07T13:30:53;27.70;60.70
16301;DHT22;8258;51.020;4.248;2023-08-07T13:33:21;26.50;59.60
16301;DHT22;8258;51.020;4.248;2023-08-07T13:35:50;25.30;68.70
16301;DHT22;8258;51.020;4.248;2023-08-07T13:38:17;24.80;69.70
16301;DHT22;8258;51.020;4.248;2023-08-07T13:40:44;25.30;69.80
16301;DHT22;8258;51.020;4.248;2023-08-07T13:43:11;26.40;67.10
16301;DHT22;8258;51.020;4.248;2023-08-07T13:45:38;25.90;72.40
16301;DHT22;8258;51.020;4.248;2023-08-07T13:48:05;27.10;69.50
16301;DHT22;8258;51.020;4.248;2023-08-07T13:50:35;27.20;68.50
16301;DHT22;8258;51.020;4.248;2023-08-07T13:53:04;25.90;72.10
16301;DHT22;8258;51.020;4.248;2023-08-07T13:55:31;24.70;74.00
16301;DHT22;8258;51.020;4.248;2023-08-07T13:57:58;25.20;77.30
16301;DHT22;8258;51.020;4.248;2023-08-07T14:00:25;27.50;73.50
16301;DHT22;8258;51.020;4.248;2023-08-07T14:02:52;28.70;62.50
16301;DHT22;8258;51.020;4.248;2023-08-07T14:05:19;28.90;58.60
16301;DHT22;8258;51.020;4.248;2023-08-07T14:07:46;27.20;62.50
16301;DHT22;8258;51.020;4.248;2023-08-07T14:10:14;27.10;66.70
16301;DHT22;8258;51.020;4.248;2023-08-07T14:12:41;27.50;64.40
16301;DHT22;8258;51.020;4.248;2023-08-07T14:15:09;26.40;66.10
16301;DHT22;8258;51.020;4.248;2023-08-07T14:17:37;25.30;67.80
16301;DHT22;8258;51.020;4.248;2023-08-07T14:20:08;26.40;71.20
16301;DHT22;8258;51.020;4.248;2023-08-07T14:22:36;28.00;60.80
16301;DHT22;8258;51.020;4.248;2023-08-07T14:25:04;28.50;58.20
16301;DHT22;8258;51.020;4.248;2023-08-07T14:27:33;29.50;57.90
16301;DHT22;8258;51.020;4.248;2023-08-07T14:30:00;29.70;57.60
16301;DHT22;8258;51.020;4.248;2023-08-07T14:32:27;30.00;57.10
16301;DHT22;8258;51.020;4.248;2023-08-07T14:34:54;29.20;56.10
16301;DHT22;8258;51.020;4.248;2023-08-07T14:37:21;29.70;57.90
16301;DHT22;8258;51.020;4.248;2023-08-07T14:39:48;29.80;54.60
16301;DHT22;8258;51.020;4.248;2023-08-07T14:42:15;29.70;56.20
16301;DHT22;8258;51.020;4.248;2023-08-07T14:44:43;30.10;55.20
16301;DHT22;8258;51.020;4.248;2023-08-07T14:47:10;29.60;54.80
16301;DHT22;8258;51.020;4.248;2023-08-07T14:49:37;29.60;54.10
16301;DHT22;8258;51.020;4.248;2023-08-07T14:52:05;29.70;53.80
16301;DHT22;8258;51.020;4.248;2023-08-07T14:54:32;30.40;52.20
16301;DHT22;8258;51.020;4.248;2023-08-07T14:56:59;30.40;50.30
16301;DHT22;8258;51.020;4.248;2023-08-07T14:59:26;29.80;51.50
16301;DHT22;8258;51.020;4.248;2023-08-07T15:01:55;29.50;51.60
16301;DHT22;8258;51.020;4.248;2023-08-07T15:04:22;28.30;52.10
16301;DHT22;8258;51.020;4.248;2023-08-07T15:06:49;27.10;55.40
16301;DHT22;8258;51.020;4.248;2023-08-07T15:09:16;26.60;59.00
16301;DHT22;8258;51.020;4.248;2023-08-07T15:11:45;26.80;55.10
16301;DHT22;8258;51.020;4.248;2023-08-07T15:14:12;25.80;59.20
16301;DHT22;8258;51.020;4.248;2023-08-07T15:16:39;25.50;59.80
16301;DHT22;8258;51.020;4.248;2023-08-07T15:19:07;25.60;60.50
16301;DHT22;8258;51.020;4.248;2023-08-07T15:21:34;26.30;56.80
16301;DHT22;8258;51.020;4.248;2023-08-07T15:24:01;26.40;58.90
16301;DHT22;8258;51.020;4.248;2023-08-07T15:26:28;27.00;56.10
16301;DHT22;8258;51.020;4.248;2023-08-07T15:28:55;26.90;55.30
16301;DHT22;8258;51.020;4.248;2023-08-07T15:31:22;26.50;56.60
16301;DHT22;8258;51.020;4.248;2023-08-07T15:33:49;26.70;57.50
16301;DHT22;8258;51.020;4.248;2023-08-07T15:36:19;27.50;55.40
16301;DHT22;8258;51.020;4.248;2023-08-07T15:38:46;26.90;55.70
16301;DHT22;8258;51.020;4.248;2023-08-07T15:41:13;25.40;59.60
16301;DHT22;8258;51.020;4.248;2023-08-07T15:43:40;24.50;64.10
16301;DHT22;8258;51.020;4.248;2023-08-07T15:46:07;23.90;70.80
16301;DHT22;8258;51.020;4.248;2023-08-07T15:48:34;23.30;76.20